sensor_id;sensor_type;location;lat;lon;timestamp;pressure;altitude;pressure_sealevel;temperature;humidity
49455;BME280;69710;64.656;21.218;2023-07-09T00:01:15;102104.21;;;12.15;100.00
49455;BME280;69710;64.656;21.218;2023-07-09T00:03:43;102102.19;;;12.10;100.00
49455;BME280;69710;64.656;21.218;2023-07-09T00:06:12;102100.09;;;12.14;100.00
49455;BME280;69710;64.656;21.218;2023-07-09T00:08:43;102098.35;;;12.19;100.00
49455;BME280;69710;64.656;21.218;2023-07-09T00:11:11;102097.68;;;12.08;100.00
49455;BME280;69710;64.656;21.218;2023-07-09T00:13:39;102097.17;;;11.69;100.00
49455;BME280;69710;64.656;21.218;2023-07-09T00:16:15;102095.61;;;11.91;100.00
49455;BME280;69710;64.656;21.218;2023-07-09T00:18:44;102096.69;;;12.07;100.00
49455;BME280;69710;64.656;21.218;2023-07-09T00:21:12;102096.14;;;11.58;100.00
49455;BME280;69710;64.656;21.218;2023-07-09T00:23:40;102099.37;;;12.12;100.00
49455;BME280;69710;64.656;21.218;2023-07-09T00:26:09;102097.56;;;12.18;100.00
49455;BME280;69710;64.656;21.218;2023-07-09T00:28:37;102097.30;;;12.14;100.00
49455;BME280;69710;64.656;21.218;2023-07-09T00:31:04;102098.62;;;11.80;100.00
49455;BME280;69710;64.656;21.218;2023-07-09T00:33:32;102099.18;;;12.04;100.00
49455;BME280;69710;64.656;21.218;2023-07-09T00:36:00;102099.81;;;12.14;100.00
49455;BME280;69710;64.656;21.218;2023-07-09T00:38:28;102102.65;;;12.09;100.00
49455;BME280;69710;64.656;21.218;2023-07-09T00:41:02;102104.82;;;11.89;100.00
49455;BME280;69710;64.656;21.218;2023-07-09T00:43:32;102105.54;;;11.79;100.00
49455;BME280;69710;64.656;21.218;2023-07-09T00:46:16;102105.79;;;11.57;100.00
49455;BME280;69710;64.656;21.218;2023-07-09T00:48:46;102107.41;;;11.83;100.00
49455;BME280;69710;64.656;21.218;2023-07-09T00:51:16;102109.96;;;11.77;100.00
49455;BME280;69710;64.656;21.218;2023-07-09T00:53:46;102108.03;;;12.07;100.00
49455;BME280;69710;64.656;21.218;2023-07-09T00:56:17;102108.88;;;11.99;100.00
49455;BME280;69710;64.656;21.218;2023-07-09T00:58:49;102109.30;;;12.16;100.00
49455;BME280;69710;64.656;21.218;2023-07-09T01:01:19;102111.44;;;12.57;100.00
49455;BME280;69710;64.656;21.218;2023-07-09T01:03:51;102106.16;;;12.70;100.00
49455;BME280;69710;64.656;21.218;2023-07-09T01:06:26;102108.59;;;13.03;100.00
49455;BME280;69710;64.656;21.218;2023-07-09T01:08:56;102107.53;;;13.60;100.00
49455;BME280;69710;64.656;21.218;2023-07-09T01:11:23;102104.99;;;14.40;98.66
49455;BME280;69710;64.656;21.218;2023-07-09T01:13:54;102107.79;;;14.01;97.91
49455;BME280;69710;64.656;21.218;2023-07-09T01:16:25;102102.36;;;14.88;94.54
49455;BME280;69710;64.656;21.218;2023-07-09T01:18:55;102098.54;;;15.31;94.01
49455;BME280;69710;64.656;21.218;2023-07-09T01:21:23;102099.63;;;15.89;93.32
49455;BME280;69710;64.656;21.218;2023-07-09T01:23:51;102099.04;;;16.50;90.31
49455;BME280;69710;64.656;21.218;2023-07-09T01:26:21;102098.13;;;17.38;87.10
49455;BME280;69710;64.656;21.218;2023-07-09T01:28:49;102099.96;;;18.02;84.92
49455;BME280;69710;64.656;21.218;2023-07-09T01:31:17;102096.29;;;18.68;81.34
49455;BME280;69710;64.656;21.218;2023-07-09T01:33:45;102095.47;;;19.09;78.00
49455;BME280;69710;64.656;21.218;2023-07-09T01:36:16;102093.20;;;20.15;74.07
49455;BME280;69710;64.656;21.218;2023-07-09T01:38:44;102093.02;;;20.91;69.43
49455;BME280;69710;64.656;21.218;2023-07-09T01:41:12;102095.80;;;20.24;67.23
49455;BME280;69710;64.656;21.218;2023-07-09T01:55:14;102106.80;;;22.95;55.58
49455;BME280;69710;64.656;21.218;2023-07-09T01:57:42;102107.78;;;22.04;55.64
49455;BME280;69710;64.656;21.218;2023-07-09T02:14:35;102110.15;;;20.86;56.31
49455;BME280;69710;64.656;21.218;2023-07-09T02:17:03;102113.00;;;19.94;57.54
49455;BME280;69710;64.656;21.218;2023-07-09T02:19:32;102111.10;;;18.96;60.27
49455;BME280;69710;64.656;21.218;2023-07-09T02:22:23;102116.91;;;18.55;62.60
49455;BME280;69710;64.656;21.218;2023-07-09T02:24:51;102120.63;;;18.12;65.97
49455;BME280;69710;64.656;21.218;2023-07-09T02:35:21;102123.86;;;17.37;72.43
49455;BME280;69710;64.656;21.218;2023-07-09T02:37:49;102125.78;;;17.34;74.20
49455;BME280;69710;64.656;21.218;2023-07-09T02:40:17;102128.98;;;17.35;74.40
49455;BME280;69710;64.656;21.218;2023-07-09T02:42:45;102134.81;;;17.55;76.08
49455;BME280;69710;64.656;21.218;2023-07-09T02:45:13;102127.88;;;18.38;74.38
49455;BME280;69710;64.656;21.218;2023-07-09T02:47:41;102130.31;;;17.98;75.19
49455;BME280;69710;64.656;21.218;2023-07-09T02:50:13;102132.54;;;18.60;75.17
49455;BME280;69710;64.656;21.218;2023-07-09T02:52:41;102133.95;;;18.97;73.23
49455;BME280;69710;64.656;21.218;2023-07-09T02:55:09;102127.85;;;19.43;72.58
49455;BME280;69710;64.656;21.218;2023-07-09T02:57:38;102126.28;;;19.98;71.56
49455;BME280;69710;64.656;21.218;2023-07-09T03:00:06;102125.54;;;20.54;70.83
49455;BME280;69710;64.656;21.218;2023-07-09T03:02:34;102124.73;;;19.53;71.28
49455;BME280;69710;64.656;21.218;2023-07-09T03:05:02;102128.57;;;19.26;73.35
49455;BME280;69710;64.656;21.218;2023-07-09T03:07:30;102124.69;;;19.65;72.47
49455;BME280;69710;64.656;21.218;2023-07-09T03:09:58;102130.48;;;18.87;73.74
49455;BME280;69710;64.656;21.218;2023-07-09T03:12:26;102128.56;;;19.27;73.70
49455;BME280;69710;64.656;21.218;2023-07-09T03:14:54;102126.98;;;18.80;75.13
49455;BME280;69710;64.656;21.218;2023-07-09T03:17:22;102123.44;;;19.56;74.21
49455;BME280;69710;64.656;21.218;2023-07-09T03:19:49;102125.81;;;19.58;73.02
49455;BME280;69710;64.656;21.218;2023-07-09T03:22:18;102131.30;;;20.07;72.20
49455;BME280;69710;64.656;21.218;2023-07-09T03:24:46;102132.97;;;20.72;69.83
49455;BME280;69710;64.656;21.218;2023-07-09T03:27:13;102130.27;;;20.41;69.08
49455;BME280;69710;64.656;21.218;2023-07-09T03:29:42;102133.24;;;21.60;66.71
49455;BME280;69710;64.656;21.218;2023-07-09T03:32:09;102133.10;;;22.52;63.07
49455;BME280;69710;64.656;21.218;2023-07-09T03:34:38;102136.09;;;22.76;62.19
49455;BME280;69710;64.656;21.218;2023-07-09T03:37:06;102136.15;;;23.66;60.33
49455;BME280;69710;64.656;21.218;2023-07-09T03:39:33;102135.23;;;25.36;56.66
49455;BME280;69710;64.656;21.218;2023-07-09T03:42:01;102134.64;;;23.97;55.24
49455;BME280;69710;64.656;21.218;2023-07-09T03:44:29;102135.40;;;24.65;52.64
49455;BME280;69710;64.656;21.218;2023-07-09T03:46:57;102138.25;;;25.64;51.30
49455;BME280;69710;64.656;21.218;2023-07-09T03:49:25;102136.95;;;25.71;50.41
49455;BME280;69710;64.656;21.218;2023-07-09T03:51:53;102139.84;;;27.16;48.30
49455;BME280;69710;64.656;21.218;2023-07-09T03:54:21;102135.92;;;24.90;49.92
49455;BME280;69710;64.656;21.218;2023-07-09T03:56:49;102137.32;;;25.48;49.67
49455;BME280;69710;64.656;21.218;2023-07-09T03:59:16;102138.67;;;26.92;47.12
49455;BME280;69710;64.656;21.218;2023-07-09T04:01:44;102140.32;;;26.74;47.18
49455;BME280;69710;64.656;21.218;2023-07-09T04:04:12;102144.89;;;22.03;54.84
49455;BME280;69710;64.656;21.218;2023-07-09T04:06:40;102148.02;;;16.94;76.66
49455;BME280;69710;64.656;21.218;2023-07-09T04:09:08;102149.26;;;15.46;99.37
49455;BME280;69710;64.656;21.218;2023-07-09T04:11:36;102155.17;;;14.99;100.00
49455;BME280;69710;64.656;21.218;2023-07-09T04:14:04;102150.51;;;15.72;100.00
49455;BME280;69710;64.656;21.218;2023-07-09T04:16:32;102150.08;;;15.49;100.00
49455;BME280;69710;64.656;21.218;2023-07-09T04:19:00;102144.12;;;18.49;92.29
49455;BME280;69710;64.656;21.218;2023-07-09T04:21:27;102138.64;;;20.39;79.94
49455;BME280;69710;64.656;21.218;2023-07-09T04:23:56;102140.23;;;22.04;73.89
49455;BME280;69710;64.656;21.218;2023-07-09T04:26:23;102136.73;;;22.24;68.84
49455;BME280;69710;64.656;21.218;2023-07-09T04:28:51;102139.81;;;22.24;68.77
49455;BME280;69710;64.656;21.218;2023-07-09T04:31:19;102142.26;;;21.99;65.32
49455;BME280;69710;64.656;21.218;2023-07-09T04:33:47;102145.05;;;16.85;86.34
49455;BME280;69710;64.656;21.218;2023-07-09T04:36:15;102142.83;;;17.40;91.69
49455;BME280;69710;64.656;21.218;2023-07-09T04:38:43;102147.08;;;18.81;86.27
49455;BME280;69710;64.656;21.218;2023-07-09T04:41:11;102143.42;;;19.88;82.20
49455;BME280;69710;64.656;21.218;2023-07-09T04:43:39;102149.73;;;17.96;87.90
49455;BME280;69710;64.656;21.218;2023-07-09T04:46:07;102149.81;;;16.65;99.85
49455;BME280;69710;64.656;21.218;2023-07-09T04:48:35;102151.28;;;16.20;100.00
49455;BME280;69710;64.656;21.218;2023-07-09T04:51:03;102155.31;;;16.91;100.00
49455;BME280;69710;64.656;21.218;2023-07-09T04:53:31;102157.60;;;18.72;92.52
49455;BME280;69710;64.656;21.218;2023-07-09T04:55:59;102158.54;;;17.36;99.88
49455;BME280;69710;64.656;21.218;2023-07-09T04:58:27;102161.75;;;19.23;92.14
49455;BME280;69710;64.656;21.218;2023-07-09T05:00:57;102161.47;;;17.24;98.89
49455;BME280;69710;64.656;21.218;2023-07-09T05:03:24;102161.71;;;18.67;95.00
49455;BME280;69710;64.656;21.218;2023-07-09T05:05:53;102158.90;;;18.42;91.30
49455;BME280;69710;64.656;21.218;2023-07-09T05:08:20;102159.52;;;18.05;92.57
49455;BME280;69710;64.656;21.218;2023-07-09T05:10:51;102161.32;;;19.00;87.18
49455;BME280;69710;64.656;21.218;2023-07-09T05:13:19;102160.82;;;18.89;88.88
49455;BME280;69710;64.656;21.218;2023-07-09T05:15:47;102163.39;;;19.52;83.94
49455;BME280;69710;64.656;21.218;2023-07-09T05:18:16;102165.49;;;19.23;87.70
49455;BME280;69710;64.656;21.218;2023-07-09T05:20:46;102159.27;;;19.95;85.32
49455;BME280;69710;64.656;21.218;2023-07-09T05:23:14;102167.94;;;19.33;85.13
49455;BME280;69710;64.656;21.218;2023-07-09T05:25:42;102162.90;;;21.03;76.55
49455;BME280;69710;64.656;21.218;2023-07-09T05:28:10;102161.08;;;22.52;73.63
49455;BME280;69710;64.656;21.218;2023-07-09T05:30:41;102167.04;;;20.56;76.00
49455;BME280;69710;64.656;21.218;2023-07-09T05:33:09;102173.75;;;19.21;84.20
49455;BME280;69710;64.656;21.218;2023-07-09T05:35:37;102167.91;;;21.24;77.54
49455;BME280;69710;64.656;21.218;2023-07-09T05:38:05;102168.92;;;20.58;78.36
49455;BME280;69710;64.656;21.218;2023-07-09T05:40:33;102172.64;;;18.52;86.36
49455;BME280;69710;64.656;21.218;2023-07-09T05:43:01;102169.53;;;20.12;80.50
49455;BME280;69710;64.656;21.218;2023-07-09T05:45:29;102168.59;;;21.00;78.05
49455;BME280;69710;64.656;21.218;2023-07-09T05:47:58;102167.19;;;20.45;77.23
49455;BME280;69710;64.656;21.218;2023-07-09T05:50:26;102176.94;;;19.48;79.54
49455;BME280;69710;64.656;21.218;2023-07-09T05:52:55;102176.44;;;18.68;86.03
49455;BME280;69710;64.656;21.218;2023-07-09T05:55:22;102171.86;;;18.43;82.72
49455;BME280;69710;64.656;21.218;2023-07-09T05:57:51;102172.78;;;18.16;86.72
49455;BME280;69710;64.656;21.218;2023-07-09T06:00:19;102169.74;;;19.00;82.87
49455;BME280;69710;64.656;21.218;2023-07-09T06:02:47;102168.38;;;18.15;86.04
49455;BME280;69710;64.656;21.218;2023-07-09T06:05:16;102170.25;;;19.27;86.58
49455;BME280;69710;64.656;21.218;2023-07-09T06:07:43;102168.40;;;18.95;84.10
49455;BME280;69710;64.656;21.218;2023-07-09T06:10:11;102167.89;;;17.50;91.42
49455;BME280;69710;64.656;21.218;2023-07-09T06:12:39;102169.57;;;17.19;95.57
49455;BME280;69710;64.656;21.218;2023-07-09T06:15:08;102167.74;;;16.81;95.46
49455;BME280;69710;64.656;21.218;2023-07-09T06:17:36;102165.97;;;17.60;93.88
49455;BME280;69710;64.656;21.218;2023-07-09T06:20:05;102166.56;;;17.10;96.59
49455;BME280;69710;64.656;21.218;2023-07-09T06:22:33;102164.99;;;16.94;100.00
49455;BME280;69710;64.656;21.218;2023-07-09T06:25:00;102165.99;;;16.88;98.34
49455;BME280;69710;64.656;21.218;2023-07-09T06:27:29;102163.55;;;16.88;98.50
49455;BME280;69710;64.656;21.218;2023-07-09T06:29:57;102162.55;;;16.89;95.34
49455;BME280;69710;64.656;21.218;2023-07-09T06:32:25;102160.20;;;17.84;95.67
49455;BME280;69710;64.656;21.218;2023-07-09T06:34:52;102162.11;;;18.32;82.95
49455;BME280;69710;64.656;21.218;2023-07-09T06:37:20;102164.12;;;19.62;82.05
49455;BME280;69710;64.656;21.218;2023-07-09T06:39:50;102161.90;;;19.64;82.02
49455;BME280;69710;64.656;21.218;2023-07-09T06:42:17;102160.11;;;19.64;80.04
49455;BME280;69710;64.656;21.218;2023-07-09T06:44:45;102159.45;;;19.87;74.09
49455;BME280;69710;64.656;21.218;2023-07-09T06:47:13;102161.04;;;20.48;75.62
49455;BME280;69710;64.656;21.218;2023-07-09T06:49:41;102163.88;;;18.55;75.09
49455;BME280;69710;64.656;21.218;2023-07-09T06:52:10;102162.43;;;19.73;68.56
49455;BME280;69710;64.656;21.218;2023-07-09T06:54:38;102158.77;;;19.89;61.86
49455;BME280;69710;64.656;21.218;2023-07-09T06:57:06;102163.90;;;19.24;59.78
49455;BME280;69710;64.656;21.218;2023-07-09T06:59:34;102161.94;;;18.97;61.28
49455;BME280;69710;64.656;21.218;2023-07-09T07:02:02;102159.28;;;20.39;62.28
49455;BME280;69710;64.656;21.218;2023-07-09T07:04:30;102161.75;;;20.16;65.47
49455;BME280;69710;64.656;21.218;2023-07-09T07:06:58;102167.72;;;20.25;63.83
49455;BME280;69710;64.656;21.218;2023-07-09T07:09:26;102167.23;;;19.94;63.32
49455;BME280;69710;64.656;21.218;2023-07-09T07:11:54;102170.08;;;20.15;65.63
49455;BME280;69710;64.656;21.218;2023-07-09T07:14:22;102169.41;;;20.18;68.42
49455;BME280;69710;64.656;21.218;2023-07-09T07:16:50;102171.94;;;20.23;64.18
49455;BME280;69710;64.656;21.218;2023-07-09T07:19:18;102180.07;;;19.89;64.49
49455;BME280;69710;64.656;21.218;2023-07-09T07:21:46;102186.35;;;19.60;65.49
49455;BME280;69710;64.656;21.218;2023-07-09T07:24:14;102189.07;;;19.70;63.02
49455;BME280;69710;64.656;21.218;2023-07-09T07:26:42;102188.50;;;19.52;68.39
49455;BME280;69710;64.656;21.218;2023-07-09T07:29:10;102186.64;;;19.41;65.46
49455;BME280;69710;64.656;21.218;2023-07-09T07:31:38;102189.67;;;19.20;64.36
49455;BME280;69710;64.656;21.218;2023-07-09T07:34:06;102190.16;;;19.34;62.00
49455;BME280;69710;64.656;21.218;2023-07-09T07:36:34;102190.32;;;19.86;60.13
49455;BME280;69710;64.656;21.218;2023-07-09T07:39:02;102193.21;;;19.20;58.60
49455;BME280;69710;64.656;21.218;2023-07-09T07:41:30;102196.23;;;19.79;56.94
49455;BME280;69710;64.656;21.218;2023-07-09T07:43:59;102193.42;;;18.20;58.06
49455;BME280;69710;64.656;21.218;2023-07-09T07:46:27;102197.48;;;19.97;57.72
49455;BME280;69710;64.656;21.218;2023-07-09T07:48:55;102196.17;;;20.06;60.68
49455;BME280;69710;64.656;21.218;2023-07-09T07:51:23;102196.78;;;20.00;61.02
49455;BME280;69710;64.656;21.218;2023-07-09T07:53:51;102192.55;;;20.72;54.20
49455;BME280;69710;64.656;21.218;2023-07-09T07:56:20;102196.25;;;20.22;55.05
49455;BME280;69710;64.656;21.218;2023-07-09T07:58:48;102197.32;;;19.83;57.05
49455;BME280;69710;64.656;21.218;2023-07-09T08:01:16;102199.86;;;18.05;64.72
49455;BME280;69710;64.656;21.218;2023-07-09T08:03:43;102200.65;;;18.80;62.34
49455;BME280;69710;64.656;21.218;2023-07-09T08:06:12;102200.12;;;19.15;65.93
49455;BME280;69710;64.656;21.218;2023-07-09T08:08:40;102204.07;;;18.36;61.30
49455;BME280;69710;64.656;21.218;2023-07-09T08:11:09;102207.60;;;18.44;68.12
49455;BME280;69710;64.656;21.218;2023-07-09T08:13:37;102207.42;;;18.39;65.73
49455;BME280;69710;64.656;21.218;2023-07-09T08:16:06;102212.54;;;18.90;64.07
49455;BME280;69710;64.656;21.218;2023-07-09T08:18:33;102211.66;;;18.63;67.96
49455;BME280;69710;64.656;21.218;2023-07-09T08:21:01;102212.28;;;18.72;65.88
49455;BME280;69710;64.656;21.218;2023-07-09T08:23:29;102212.27;;;18.62;72.33
49455;BME280;69710;64.656;21.218;2023-07-09T08:25:59;102211.62;;;17.82;72.79
49455;BME280;69710;64.656;21.218;2023-07-09T08:28:27;102213.42;;;18.04;74.14
49455;BME280;69710;64.656;21.218;2023-07-09T08:30:56;102214.50;;;18.07;74.16
49455;BME280;69710;64.656;21.218;2023-07-09T08:33:25;102214.20;;;18.25;73.08
49455;BME280;69710;64.656;21.218;2023-07-09T08:35:54;102210.86;;;18.49;77.95
49455;BME280;69710;64.656;21.218;2023-07-09T08:38:22;102214.28;;;18.70;82.27
49455;BME280;69710;64.656;21.218;2023-07-09T08:40:56;102217.07;;;18.34;80.02
49455;BME280;69710;64.656;21.218;2023-07-09T08:43:33;102216.52;;;18.04;80.75
49455;BME280;69710;64.656;21.218;2023-07-09T08:46:09;102213.55;;;17.79;84.17
49455;BME280;69710;64.656;21.218;2023-07-09T08:48:46;102209.59;;;17.74;87.79
49455;BME280;69710;64.656;21.218;2023-07-09T08:51:28;102211.03;;;17.58;84.43
49455;BME280;69710;64.656;21.218;2023-07-09T08:54:00;102211.22;;;17.74;86.51
49455;BME280;69710;64.656;21.218;2023-07-09T08:56:32;102212.87;;;17.24;84.82
49455;BME280;69710;64.656;21.218;2023-07-09T08:59:02;102216.04;;;17.44;84.57
49455;BME280;69710;64.656;21.218;2023-07-09T09:01:35;102219.58;;;17.55;84.81
49455;BME280;69710;64.656;21.218;2023-07-09T09:04:07;102219.78;;;17.29;85.58
49455;BME280;69710;64.656;21.218;2023-07-09T09:06:42;102223.28;;;17.72;85.49
49455;BME280;69710;64.656;21.218;2023-07-09T09:09:23;102222.82;;;17.64;86.18
49455;BME280;69710;64.656;21.218;2023-07-09T09:11:59;102221.99;;;17.45;86.66
49455;BME280;69710;64.656;21.218;2023-07-09T09:14:31;102221.60;;;17.91;86.68
49455;BME280;69710;64.656;21.218;2023-07-09T09:17:02;102221.54;;;17.59;84.58
49455;BME280;69710;64.656;21.218;2023-07-09T09:19:32;102220.38;;;18.27;84.03
49455;BME280;69710;64.656;21.218;2023-07-09T09:22:04;102221.72;;;17.42;86.01
49455;BME280;69710;64.656;21.218;2023-07-09T09:24:37;102221.00;;;18.09;81.71
49455;BME280;69710;64.656;21.218;2023-07-09T09:27:07;102220.05;;;17.63;89.20
49455;BME280;69710;64.656;21.218;2023-07-09T09:29:35;102216.53;;;17.34;89.70
49455;BME280;69710;64.656;21.218;2023-07-09T09:32:18;102215.14;;;17.10;88.77
49455;BME280;69710;64.656;21.218;2023-07-09T09:34:47;102216.46;;;16.98;96.74
49455;BME280;69710;64.656;21.218;2023-07-09T09:37:25;102216.42;;;17.52;93.52
49455;BME280;69710;64.656;21.218;2023-07-09T09:39:53;102217.86;;;17.46;93.33
49455;BME280;69710;64.656;21.218;2023-07-09T09:42:24;102220.50;;;17.49;92.47
49455;BME280;69710;64.656;21.218;2023-07-09T09:44:54;102219.05;;;17.21;93.04
49455;BME280;69710;64.656;21.218;2023-07-09T09:47:26;102216.16;;;17.37;94.98
49455;BME280;69710;64.656;21.218;2023-07-09T09:49:54;102213.82;;;16.86;97.30
49455;BME280;69710;64.656;21.218;2023-07-09T09:52:29;102215.06;;;17.09;94.59
49455;BME280;69710;64.656;21.218;2023-07-09T09:55:08;102215.10;;;17.16;95.64
49455;BME280;69710;64.656;21.218;2023-07-09T09:57:37;102210.75;;;16.73;97.86
49455;BME280;69710;64.656;21.218;2023-07-09T10:00:12;102210.88;;;17.08;96.51
49455;BME280;69710;64.656;21.218;2023-07-09T10:00:15;102209.31;;;17.12;95.79
49455;BME280;69710;64.656;21.218;2023-07-09T10:02:43;102208.52;;;16.94;100.00
49455;BME280;69710;64.656;21.218;2023-07-09T10:05:13;102211.80;;;16.42;99.11
49455;BME280;69710;64.656;21.218;2023-07-09T10:07:47;102216.35;;;16.52;100.00
49455;BME280;69710;64.656;21.218;2023-07-09T10:10:22;102216.99;;;16.71;98.98
49455;BME280;69710;64.656;21.218;2023-07-09T10:12:52;102212.65;;;16.90;100.00
49455;BME280;69710;64.656;21.218;2023-07-09T10:15:33;102217.91;;;16.70;98.63
49455;BME280;69710;64.656;21.218;2023-07-09T10:18:03;102219.92;;;16.49;100.00
49455;BME280;69710;64.656;21.218;2023-07-09T10:20:36;102217.99;;;16.33;100.00
49455;BME280;69710;64.656;21.218;2023-07-09T10:23:18;102221.51;;;16.35;100.00
49455;BME280;69710;64.656;21.218;2023-07-09T10:25:52;102217.85;;;16.82;100.00
49455;BME280;69710;64.656;21.218;2023-07-09T10:28:43;102218.06;;;16.85;100.00
49455;BME280;69710;64.656;21.218;2023-07-09T10:31:19;102217.66;;;17.55;100.00
49455;BME280;69710;64.656;21.218;2023-07-09T10:33:57;102215.86;;;16.73;100.00
49455;BME280;69710;64.656;21.218;2023-07-09T10:36:46;102218.78;;;16.40;100.00
49455;BME280;69710;64.656;21.218;2023-07-09T10:39:19;102216.44;;;17.03;100.00
49455;BME280;69710;64.656;21.218;2023-07-09T10:41:50;102214.94;;;16.59;100.00
49455;BME280;69710;64.656;21.218;2023-07-09T10:44:24;102218.83;;;16.80;100.00
49455;BME280;69710;64.656;21.218;2023-07-09T10:46:56;102215.22;;;17.19;100.00
49455;BME280;69710;64.656;21.218;2023-07-09T10:49:31;102221.81;;;16.72;100.00
49455;BME280;69710;64.656;21.218;2023-07-09T10:52:06;102219.62;;;17.04;100.00
49455;BME280;69710;64.656;21.218;2023-07-09T10:54:39;102222.84;;;16.70;100.00
49455;BME280;69710;64.656;21.218;2023-07-09T10:57:13;102220.98;;;17.11;100.00
49455;BME280;69710;64.656;21.218;2023-07-09T10:59:48;102216.04;;;17.13;100.00
49455;BME280;69710;64.656;21.218;2023-07-09T11:02:22;102216.89;;;16.57;100.00
49455;BME280;69710;64.656;21.218;2023-07-09T11:04:54;102212.85;;;17.24;100.00
49455;BME280;69710;64.656;21.218;2023-07-09T11:07:27;102211.67;;;17.28;100.00
49455;BME280;69710;64.656;21.218;2023-07-09T11:09:58;102206.86;;;17.02;100.00
49455;BME280;69710;64.656;21.218;2023-07-09T11:12:30;102205.20;;;17.45;100.00
49455;BME280;69710;64.656;21.218;2023-07-09T11:15:03;102202.95;;;17.40;100.00
49455;BME280;69710;64.656;21.218;2023-07-09T11:17:32;102199.31;;;17.53;100.00
49455;BME280;69710;64.656;21.218;2023-07-09T11:20:06;102197.59;;;17.59;100.00
49455;BME280;69710;64.656;21.218;2023-07-09T11:22:38;102195.14;;;17.75;100.00
49455;BME280;69710;64.656;21.218;2023-07-09T11:25:09;102192.71;;;17.20;100.00
49455;BME280;69710;64.656;21.218;2023-07-09T11:27:48;102192.65;;;17.46;100.00
49455;BME280;69710;64.656;21.218;2023-07-09T11:30:20;102193.78;;;17.49;100.00
49455;BME280;69710;64.656;21.218;2023-07-09T11:32:53;102194.83;;;17.93;100.00
49455;BME280;69710;64.656;21.218;2023-07-09T11:35:24;102195.83;;;18.16;100.00
49455;BME280;69710;64.656;21.218;2023-07-09T11:37:53;102194.88;;;17.86;100.00
49455;BME280;69710;64.656;21.218;2023-07-09T11:40:22;102189.23;;;17.76;100.00
49455;BME280;69710;64.656;21.218;2023-07-09T11:42:52;102187.67;;;17.68;100.00
49455;BME280;69710;64.656;21.218;2023-07-09T11:45:23;102187.76;;;17.55;100.00
49455;BME280;69710;64.656;21.218;2023-07-09T11:47:58;102181.85;;;17.59;100.00
49455;BME280;69710;64.656;21.218;2023-07-09T11:50:29;102182.44;;;17.94;100.00
49455;BME280;69710;64.656;21.218;2023-07-09T11:52:59;102180.92;;;17.84;100.00
49455;BME280;69710;64.656;21.218;2023-07-09T11:55:33;102179.12;;;17.58;100.00
49455;BME280;69710;64.656;21.218;2023-07-09T11:58:05;102175.71;;;17.62;100.00
49455;BME280;69710;64.656;21.218;2023-07-09T12:00:38;102177.49;;;18.19;98.45
49455;BME280;69710;64.656;21.218;2023-07-09T12:03:09;102175.63;;;18.20;100.00
49455;BME280;69710;64.656;21.218;2023-07-09T12:05:38;102175.48;;;18.24;100.00
49455;BME280;69710;64.656;21.218;2023-07-09T12:08:10;102172.72;;;17.92;100.00
49455;BME280;69710;64.656;21.218;2023-07-09T12:10:42;102171.22;;;18.37;100.00
49455;BME280;69710;64.656;21.218;2023-07-09T12:13:11;102173.18;;;18.14;100.00
49455;BME280;69710;64.656;21.218;2023-07-09T12:15:40;102172.99;;;18.15;100.00
49455;BME280;69710;64.656;21.218;2023-07-09T12:18:12;102171.98;;;18.09;98.87
49455;BME280;69710;64.656;21.218;2023-07-09T12:20:41;102166.83;;;18.20;97.88
49455;BME280;69710;64.656;21.218;2023-07-09T12:23:11;102167.66;;;18.32;95.16
49455;BME280;69710;64.656;21.218;2023-07-09T12:25:48;102164.68;;;18.58;95.64
49455;BME280;69710;64.656;21.218;2023-07-09T12:28:16;102166.73;;;18.44;95.49
49455;BME280;69710;64.656;21.218;2023-07-09T12:30:46;102163.65;;;18.79;93.64
49455;BME280;69710;64.656;21.218;2023-07-09T12:33:17;102161.73;;;18.65;92.74
49455;BME280;69710;64.656;21.218;2023-07-09T12:35:46;102156.48;;;18.77;91.11
49455;BME280;69710;64.656;21.218;2023-07-09T12:38:19;102153.11;;;18.93;85.21
49455;BME280;69710;64.656;21.218;2023-07-09T12:40:48;102149.74;;;19.33;75.19
49455;BME280;69710;64.656;21.218;2023-07-09T12:43:19;102150.60;;;19.37;68.73
49455;BME280;69710;64.656;21.218;2023-07-09T12:45:50;102149.38;;;19.57;64.62
49455;BME280;69710;64.656;21.218;2023-07-09T12:48:23;102153.42;;;19.64;77.53
49455;BME280;69710;64.656;21.218;2023-07-09T12:50:51;102150.64;;;19.19;77.78
49455;BME280;69710;64.656;21.218;2023-07-09T12:53:24;102152.74;;;19.12;76.94
49455;BME280;69710;64.656;21.218;2023-07-09T12:55:55;102151.14;;;19.10;76.66
49455;BME280;69710;64.656;21.218;2023-07-09T12:58:25;102151.11;;;19.26;78.81
49455;BME280;69710;64.656;21.218;2023-07-09T13:00:54;102154.36;;;18.81;77.08
49455;BME280;69710;64.656;21.218;2023-07-09T13:03:26;102157.06;;;19.46;73.74
49455;BME280;69710;64.656;21.218;2023-07-09T13:05:56;102157.21;;;18.96;74.92
49455;BME280;69710;64.656;21.218;2023-07-09T13:08:26;102157.50;;;18.70;76.04
49455;BME280;69710;64.656;21.218;2023-07-09T13:10:54;102159.97;;;18.61;73.09
49455;BME280;69710;64.656;21.218;2023-07-09T13:13:23;102159.66;;;18.68;75.38
49455;BME280;69710;64.656;21.218;2023-07-09T13:15:52;102156.79;;;18.98;75.09
49455;BME280;69710;64.656;21.218;2023-07-09T13:18:22;102157.11;;;19.16;78.90
49455;BME280;69710;64.656;21.218;2023-07-09T13:20:55;102152.79;;;19.26;75.22
49455;BME280;69710;64.656;21.218;2023-07-09T13:23:25;102154.15;;;19.08;79.82